createdAt,value
2019-02-24T00:01:53.777Z,7.30
2019-02-24T00:04:22.020Z,6.40
2019-02-24T00:06:50.239Z,6.50
2019-02-24T00:09:18.490Z,6.27
2019-02-24T00:11:46.704Z,6.97
2019-02-24T00:14:14.952Z,6.80
2019-02-24T00:16:43.168Z,7.20
2019-02-24T00:19:11.408Z,6.50
2019-02-24T00:21:39.632Z,6.60
2019-02-24T00:24:07.844Z,6.97
2019-02-24T00:26:36.087Z,6.90
2019-02-24T00:29:04.299Z,6.33
2019-02-24T00:31:32.586Z,6.93
2019-02-24T00:34:00.748Z,6.27
2019-02-24T00:36:28.998Z,7.17
2019-02-24T00:38:57.213Z,6.60
2019-02-24T00:41:25.461Z,7.17
2019-02-24T00:43:53.680Z,6.83
2019-02-24T00:46:21.931Z,7.63
2019-02-24T00:48:50.148Z,7.30
2019-02-24T00:51:18.391Z,6.77
2019-02-24T00:53:46.611Z,6.97
2019-02-24T00:56:14.859Z,7.07
2019-02-24T00:58:43.079Z,6.73
2019-02-24T01:01:11.323Z,6.90
2019-02-24T01:03:39.540Z,6.23
2019-02-24T01:06:07.788Z,5.17
2019-02-24T01:08:36.001Z,6.47
2019-02-24T01:11:04.316Z,6.73
2019-02-24T01:13:32.539Z,6.57
2019-02-24T01:16:00.791Z,6.73
2019-02-24T01:18:29.004Z,6.33
2019-02-24T01:20:57.248Z,5.93
2019-02-24T01:23:25.479Z,6.70
2019-02-24T01:25:53.712Z,6.10
2019-02-24T01:28:25.359Z,7.20
2019-02-24T01:30:51.828Z,6.47
2019-02-24T01:33:20.045Z,5.97
2019-02-24T01:35:48.285Z,5.93
2019-02-24T01:38:16.504Z,6.37
2019-02-24T01:40:44.756Z,6.40
2019-02-24T01:43:12.967Z,5.57
2019-02-24T01:45:41.188Z,5.77
2019-02-24T01:48:09.428Z,6.53
2019-02-24T01:50:37.647Z,6.50
2019-02-24T01:53:05.964Z,5.83
2019-02-24T01:55:34.257Z,6.43
2019-02-24T01:58:02.504Z,7.00
2019-02-24T02:00:30.723Z,5.87
2019-02-24T02:02:58.971Z,6.80
2019-02-24T02:05:27.262Z,7.63
2019-02-24T02:07:55.508Z,6.40
2019-02-24T02:10:23.732Z,6.07
2019-02-24T02:12:51.980Z,5.97
2019-02-24T02:15:20.260Z,5.83
2019-02-24T02:17:48.504Z,6.20
2019-02-24T02:20:16.720Z,6.23
2019-02-24T02:22:44.975Z,6.77
2019-02-24T02:25:13.180Z,6.40
2019-02-24T02:27:41.424Z,6.63
2019-02-24T02:30:10.421Z,5.97
2019-02-24T02:32:38.665Z,5.83
2019-02-24T02:35:07.851Z,7.27
2019-02-24T02:37:36.103Z,7.33
2019-02-24T02:40:05.861Z,6.57
2019-02-24T02:42:34.110Z,6.33
2019-02-24T02:45:02.354Z,6.57
2019-02-24T02:47:30.585Z,6.20
2019-02-24T02:49:58.805Z,7.03
2019-02-24T02:52:27.056Z,6.70
2019-02-24T02:54:55.347Z,6.70
2019-02-24T02:57:23.620Z,7.53
2019-02-24T02:59:51.838Z,6.97
2019-02-24T03:02:24.367Z,6.30
2019-02-24T03:04:49.978Z,7.63
2019-02-24T03:07:22.557Z,6.93
2019-02-24T03:09:50.809Z,7.53
2019-02-24T03:12:19.067Z,6.67
2019-02-24T03:14:47.309Z,7.00
2019-02-24T03:17:15.581Z,7.03
2019-02-24T03:19:43.806Z,7.73
2019-02-24T03:22:12.062Z,7.13
2019-02-24T03:24:40.311Z,7.20
2019-02-24T03:27:08.556Z,7.00
2019-02-24T03:29:36.805Z,6.50
2019-02-24T03:32:05.051Z,7.37
2019-02-24T03:34:33.277Z,7.20
2019-02-24T03:37:01.525Z,6.47
2019-02-24T03:39:29.769Z,6.70
2019-02-24T03:41:58.013Z,7.13
2019-02-24T03:44:26.257Z,6.33
2019-02-24T03:46:54.486Z,5.83
2019-02-24T03:49:22.757Z,6.13
2019-02-24T03:51:50.973Z,6.80
2019-02-24T03:54:19.225Z,6.50
2019-02-24T03:56:47.449Z,6.60
2019-02-24T03:59:15.774Z,6.93
2019-02-24T04:01:44.066Z,7.70
2019-02-24T04:04:12.321Z,6.47
2019-02-24T04:06:40.826Z,7.53
2019-02-24T04:09:09.586Z,7.03
2019-02-24T04:11:37.977Z,7.57
2019-02-24T04:14:06.226Z,7.03
2019-02-24T04:16:34.445Z,7.70
2019-02-24T04:19:02.695Z,7.17
2019-02-24T04:21:30.914Z,7.10
2019-02-24T04:23:59.165Z,7.20
2019-02-24T04:26:27.409Z,6.57
2019-02-24T04:28:55.658Z,7.93
2019-02-24T04:31:23.881Z,7.30
2019-02-24T04:33:52.129Z,7.10
2019-02-24T04:36:20.353Z,6.10
2019-02-24T04:38:48.609Z,6.93
2019-02-24T04:41:16.834Z,6.60
2019-02-24T04:43:45.091Z,7.40
2019-02-24T04:46:13.312Z,7.73
2019-02-24T04:48:41.571Z,6.50
2019-02-24T04:51:09.795Z,7.07
2019-02-24T04:53:38.018Z,6.30
2019-02-24T04:56:06.275Z,5.93
2019-02-24T04:58:34.488Z,6.67
2019-02-24T05:01:02.742Z,7.10
2019-02-24T05:03:30.964Z,7.03
2019-02-24T05:05:59.217Z,7.20
2019-02-24T05:08:27.437Z,7.00
2019-02-24T05:10:55.693Z,6.70
2019-02-24T05:13:23.922Z,6.47
2019-02-24T05:15:52.193Z,7.13
2019-02-24T05:18:20.424Z,6.27
2019-02-24T05:20:48.699Z,7.13
2019-02-24T05:23:16.929Z,6.40
2019-02-24T05:25:45.201Z,6.73
2019-02-24T05:28:13.446Z,7.13
2019-02-24T05:30:41.699Z,6.53
2019-02-24T05:33:09.925Z,8.00
2019-02-24T05:35:38.173Z,6.97
2019-02-24T05:38:06.465Z,7.80
2019-02-24T05:40:34.729Z,6.40
2019-02-24T05:43:03.058Z,6.93
2019-02-24T05:45:31.300Z,6.87
2019-02-24T05:47:59.532Z,7.00
2019-02-24T05:50:27.816Z,7.00
2019-02-24T05:52:56.029Z,7.03
2019-02-24T05:55:24.285Z,8.07
2019-02-24T05:57:52.517Z,13.87
2019-02-24T06:00:20.765Z,7.00
2019-02-24T06:02:48.990Z,6.73
2019-02-24T06:05:17.237Z,6.60
2019-02-24T06:07:45.488Z,6.40
2019-02-24T06:10:13.708Z,6.83
2019-02-24T06:12:41.961Z,6.43
2019-02-24T06:15:10.205Z,6.97
2019-02-24T06:17:38.458Z,6.27
2019-02-24T06:20:06.766Z,6.40
2019-02-24T06:22:35.001Z,6.23
2019-02-24T06:25:03.494Z,5.90
2019-02-24T06:27:31.744Z,6.07
2019-02-24T06:30:04.958Z,6.70
2019-02-24T06:32:29.890Z,6.80
2019-02-24T06:34:58.117Z,6.67
2019-02-24T06:37:26.393Z,6.47
2019-02-24T06:39:54.614Z,8.00
2019-02-24T06:42:22.935Z,5.60
2019-02-24T06:44:51.156Z,5.97
2019-02-24T06:47:19.417Z,6.97
2019-02-24T06:49:47.638Z,6.57
2019-02-24T06:52:15.921Z,6.23
2019-02-24T06:54:44.135Z,6.60
2019-02-24T06:57:12.405Z,6.27
2019-02-24T06:59:40.624Z,6.53
2019-02-24T07:02:08.882Z,6.60
2019-02-24T07:04:37.105Z,7.20
2019-02-24T07:07:05.366Z,6.60
2019-02-24T07:09:33.584Z,7.13
2019-02-24T07:12:01.881Z,7.07
2019-02-24T07:14:30.101Z,6.57
2019-02-24T07:16:58.345Z,6.60
2019-02-24T07:19:26.621Z,6.43
2019-02-24T07:21:54.861Z,6.80
2019-02-24T07:24:23.129Z,6.27
2019-02-24T07:26:51.369Z,6.77
2019-02-24T07:29:19.617Z,6.67
2019-02-24T07:31:47.866Z,6.37
2019-02-24T07:34:16.116Z,6.87
2019-02-24T07:36:44.339Z,6.83
2019-02-24T07:39:12.589Z,5.80
2019-02-24T07:41:40.815Z,7.03
2019-02-24T07:44:09.069Z,5.87
2019-02-24T07:46:37.289Z,6.77
2019-02-24T07:49:05.543Z,6.23
2019-02-24T07:51:33.766Z,6.30
2019-02-24T07:54:02.016Z,6.73
2019-02-24T07:56:30.236Z,6.30
2019-02-24T07:58:58.493Z,6.53
2019-02-24T08:01:26.713Z,6.20
2019-02-24T08:03:54.965Z,6.67
2019-02-24T08:06:23.181Z,5.63
2019-02-24T08:08:51.433Z,5.87
2019-02-24T08:11:19.667Z,5.27
2019-02-24T08:13:47.913Z,6.60
2019-02-24T08:16:16.135Z,5.83
2019-02-24T08:18:49.605Z,6.37
2019-02-24T08:21:14.263Z,5.93
2019-02-24T08:23:42.489Z,5.70
2019-02-24T08:26:10.725Z,6.17
2019-02-24T08:28:38.945Z,5.73
2019-02-24T08:31:07.217Z,5.07
2019-02-24T08:33:35.430Z,6.47
2019-02-24T08:36:03.682Z,5.80
2019-02-24T08:38:31.899Z,6.10
2019-02-24T08:41:00.146Z,6.53
2019-02-24T08:43:28.365Z,6.00
2019-02-24T08:45:56.608Z,5.80
2019-02-24T08:48:24.853Z,5.27
2019-02-24T08:50:53.094Z,4.57
2019-02-24T08:53:21.314Z,5.77
2019-02-24T08:55:49.561Z,5.93
2019-02-24T08:58:17.849Z,6.00
2019-02-24T09:00:51.041Z,5.73
2019-02-24T09:03:15.986Z,5.87
2019-02-24T09:05:44.233Z,5.93
2019-02-24T09:08:12.449Z,5.50
2019-02-24T09:10:40.699Z,6.20
2019-02-24T09:13:08.942Z,6.97
2019-02-24T09:15:37.197Z,6.10
2019-02-24T09:18:05.415Z,5.97
2019-02-24T09:20:33.658Z,5.40
2019-02-24T09:23:01.877Z,5.67
2019-02-24T09:25:30.131Z,6.10
2019-02-24T09:27:58.344Z,5.37
2019-02-24T09:30:26.598Z,5.40
2019-02-24T09:32:54.818Z,5.90
2019-02-24T09:35:23.073Z,5.53
2019-02-24T09:37:51.317Z,5.20
2019-02-24T09:40:19.889Z,5.47
2019-02-24T09:42:48.132Z,5.80
2019-02-24T09:45:16.374Z,5.87
2019-02-24T09:47:47.048Z,5.67
2019-02-24T09:50:14.461Z,5.13
2019-02-24T09:52:43.066Z,5.90
2019-02-24T09:55:11.682Z,5.73
2019-02-24T09:57:39.935Z,5.57
2019-02-24T10:00:09.682Z,4.90
2019-02-24T10:02:37.930Z,6.00
2019-02-24T10:05:07.209Z,4.90
2019-02-24T10:07:35.465Z,4.90
2019-02-24T10:10:06.458Z,5.50
2019-02-24T10:12:34.705Z,5.87
2019-02-24T10:15:03.346Z,4.70
2019-02-24T10:17:31.918Z,5.27
2019-02-24T10:20:00.457Z,5.50
2019-02-24T10:22:29.062Z,5.23
2019-02-24T10:24:57.277Z,5.20
2019-02-24T10:27:25.545Z,4.80
2019-02-24T10:29:54.092Z,4.60
2019-02-24T10:32:22.338Z,5.23
2019-02-24T10:34:50.885Z,4.97
2019-02-24T10:37:19.461Z,5.90
2019-02-24T10:39:48.010Z,5.80
2019-02-24T10:42:16.582Z,5.30
2019-02-24T10:44:44.797Z,4.50
2019-02-24T10:47:13.366Z,5.50
2019-02-24T10:49:41.913Z,5.60
2019-02-24T10:52:10.514Z,4.90
2019-02-24T10:54:39.082Z,5.97
2019-02-24T10:57:11.803Z,5.73
2019-02-24T10:59:37.913Z,5.20
2019-02-24T11:02:06.581Z,5.37
2019-02-24T11:04:35.120Z,4.97
2019-02-24T11:07:03.697Z,4.87
2019-02-24T11:09:32.269Z,5.30
2019-02-24T11:12:00.810Z,5.30
2019-02-24T11:14:29.381Z,4.93
2019-02-24T11:16:57.928Z,4.83
2019-02-24T11:19:26.172Z,5.30
2019-02-24T11:21:54.722Z,5.10
2019-02-24T11:24:23.298Z,5.20
2019-02-24T11:26:51.841Z,5.40
2019-02-24T11:29:20.413Z,5.20
2019-02-24T11:31:48.633Z,4.90
2019-02-24T11:34:17.202Z,4.40
2019-02-24T11:36:45.750Z,4.67
2019-02-24T11:39:14.424Z,4.50
2019-02-24T11:41:43.053Z,4.40
2019-02-24T11:44:11.293Z,4.40
2019-02-24T11:46:39.861Z,4.10
2019-02-24T11:49:08.105Z,4.10
2019-02-24T11:51:36.325Z,4.17
2019-02-24T11:54:04.922Z,4.80
2019-02-24T11:56:33.525Z,4.60
2019-02-24T11:59:02.126Z,5.17
2019-02-24T12:01:30.694Z,4.83
2019-02-24T12:03:59.265Z,4.80
2019-02-24T12:06:27.806Z,5.00
2019-02-24T12:09:04.897Z,4.80
2019-02-24T12:11:26.569Z,4.80
2019-02-24T12:13:55.146Z,4.87
2019-02-24T12:16:23.729Z,5.07
2019-02-24T12:18:52.296Z,6.10
2019-02-24T12:21:20.861Z,4.90
2019-02-24T12:23:49.429Z,5.33
2019-02-24T12:26:17.717Z,5.00
2019-02-24T12:28:46.300Z,4.63
2019-02-24T12:31:14.841Z,4.70
2019-02-24T12:33:43.385Z,4.10
2019-02-24T12:36:11.953Z,4.93
2019-02-24T12:38:40.501Z,4.43
2019-02-24T12:41:09.097Z,4.70
2019-02-24T12:43:37.316Z,5.07
2019-02-24T12:46:05.889Z,4.30
2019-02-24T12:48:34.458Z,4.60
2019-02-24T12:51:03.032Z,4.80
2019-02-24T12:53:31.581Z,4.60
2019-02-24T12:55:59.894Z,4.33
2019-02-24T12:58:28.105Z,4.17
2019-02-24T13:00:56.687Z,4.70
2019-02-24T13:03:25.301Z,4.13
2019-02-24T13:05:53.577Z,4.73
2019-02-24T13:08:21.813Z,4.57
2019-02-24T13:10:50.454Z,4.43
2019-02-24T13:13:18.693Z,4.80
2019-02-24T13:15:47.369Z,4.10
2019-02-24T13:18:15.985Z,4.73
2019-02-24T13:20:44.561Z,4.70
2019-02-24T13:23:13.129Z,4.40
2019-02-24T13:25:41.837Z,4.40
2019-02-24T13:28:10.377Z,4.57
2019-02-24T13:30:38.632Z,4.53
2019-02-24T13:33:07.604Z,4.63
2019-02-24T13:35:36.254Z,4.60
2019-02-24T13:38:04.865Z,4.00
2019-02-24T13:40:33.105Z,4.27
2019-02-24T13:43:01.659Z,4.63
2019-02-24T13:45:30.253Z,4.30
2019-02-24T13:47:58.488Z,4.97
2019-02-24T13:50:27.061Z,4.47
2019-02-24T13:52:55.673Z,4.33
2019-02-24T13:55:24.245Z,4.53
2019-02-24T13:57:52.797Z,4.43
2019-02-24T14:00:21.977Z,4.80
2019-02-24T14:02:50.638Z,4.43
2019-02-24T14:05:18.851Z,4.23
2019-02-24T14:07:47.434Z,4.20
2019-02-24T14:10:15.977Z,4.13
2019-02-24T14:12:44.544Z,4.33
2019-02-24T14:15:14.562Z,4.60
2019-02-24T14:17:43.198Z,4.30
2019-02-24T14:20:16.384Z,4.00
2019-02-24T14:22:44.958Z,4.20
2019-02-24T14:25:14.644Z,4.27
2019-02-24T14:27:43.216Z,4.20
2019-02-24T14:30:16.068Z,4.47
2019-02-24T14:32:44.769Z,4.70
2019-02-24T14:35:16.146Z,4.57
2019-02-24T14:37:44.714Z,4.20
2019-02-24T14:40:13.443Z,4.40
2019-02-24T14:42:42.081Z,4.10
2019-02-24T14:45:13.257Z,4.70
2019-02-24T14:47:41.834Z,4.33
2019-02-24T14:50:10.522Z,4.33
2019-02-24T14:52:39.169Z,4.63
2019-02-24T14:55:12.005Z,4.37
2019-02-24T14:57:40.909Z,4.53
2019-02-24T15:00:11.169Z,3.80
2019-02-24T15:02:42.559Z,4.40
2019-02-24T15:05:10.757Z,4.77
2019-02-24T15:07:39.397Z,4.67
2019-02-24T15:10:18.741Z,4.77
2019-02-24T15:12:47.449Z,5.17
2019-02-24T15:15:21.725Z,4.83
2019-02-24T15:17:50.303Z,4.37
2019-02-24T15:20:22.509Z,4.40
2019-02-24T15:22:50.847Z,4.87
2019-02-24T15:25:19.417Z,4.47
2019-02-24T15:27:48.005Z,4.47
2019-02-24T15:30:22.428Z,3.93
2019-02-24T15:32:51.932Z,4.27
2019-02-24T15:35:20.820Z,4.20
2019-02-24T15:37:49.394Z,3.83
2019-02-24T15:40:17.998Z,4.90
2019-02-24T15:42:46.601Z,4.95
2019-02-24T15:45:15.358Z,5.00
2019-02-24T15:47:43.610Z,4.20
2019-02-24T15:50:13.394Z,4.27
2019-02-24T15:52:41.966Z,4.30
2019-02-24T15:55:13.119Z,4.67
2019-02-24T15:57:41.430Z,5.00
2019-02-24T16:00:16.573Z,4.60
2019-02-24T16:02:44.821Z,4.43
2019-02-24T16:05:13.518Z,4.50
2019-02-24T16:07:42.089Z,4.97
2019-02-24T16:10:16.426Z,4.70
2019-02-24T16:12:44.734Z,4.53
2019-02-24T16:15:15.783Z,4.40
2019-02-24T16:17:44.357Z,5.03
2019-02-24T16:20:16.973Z,4.70
2019-02-24T16:22:45.577Z,4.57
2019-02-24T16:25:14.280Z,4.57
2019-02-24T16:27:42.477Z,4.37
2019-02-24T16:30:13.492Z,6.00
2019-02-24T16:32:42.038Z,5.70
2019-02-24T16:35:17.954Z,5.70
2019-02-24T16:37:46.573Z,4.57
2019-02-24T16:40:21.149Z,4.27
2019-02-24T16:42:49.698Z,4.30
2019-02-24T16:45:18.358Z,4.43
2019-02-24T16:47:46.994Z,4.80
2019-02-24T16:50:17.310Z,5.20
2019-02-24T16:52:45.938Z,4.63
2019-02-24T16:55:15.950Z,4.80
2019-02-24T16:57:44.640Z,5.13
2019-02-24T17:00:15.854Z,5.13
2019-02-24T17:02:44.397Z,5.20
2019-02-24T17:05:12.645Z,4.67
2019-02-24T17:07:41.252Z,4.70
2019-02-24T17:10:21.746Z,6.13
2019-02-24T17:12:50.316Z,9.80
2019-02-24T17:15:18.982Z,9.23
2019-02-24T17:17:47.525Z,9.30
2019-02-24T17:20:24.404Z,6.00
2019-02-24T17:22:52.642Z,5.00
2019-02-24T17:25:21.216Z,5.60
2019-02-24T17:27:49.761Z,5.90
2019-02-24T17:30:18.469Z,5.60
2019-02-24T17:32:47.020Z,6.80
2019-02-24T17:35:15.269Z,7.53
2019-02-24T17:37:43.565Z,7.17
2019-02-24T17:40:13.353Z,8.10
2019-02-24T17:42:41.966Z,7.50
2019-02-24T17:45:12.377Z,5.53
2019-02-24T17:47:41.017Z,5.27
2019-02-24T17:50:11.962Z,5.47
2019-02-24T17:52:40.525Z,5.90
2019-02-24T17:55:09.837Z,5.27
2019-02-24T17:57:38.409Z,6.83
2019-02-24T18:00:13.541Z,6.53
2019-02-24T18:02:42.158Z,6.70
2019-02-24T18:05:10.733Z,6.73
2019-02-24T18:07:39.282Z,6.73
2019-02-24T18:10:07.896Z,7.23
2019-02-24T18:12:36.482Z,7.80
2019-02-24T18:15:08.542Z,6.93
2019-02-24T18:17:36.713Z,6.15
2019-02-24T18:20:10.942Z,5.10
2019-02-24T18:22:39.521Z,4.80
2019-02-24T18:25:10.633Z,5.17
2019-02-24T18:27:38.877Z,5.53
2019-02-24T18:30:14.388Z,5.37
2019-02-24T18:32:42.965Z,5.50
2019-02-24T18:35:11.513Z,7.10
2019-02-24T18:37:40.158Z,7.50
2019-02-24T18:40:11.341Z,6.10
2019-02-24T18:42:39.914Z,5.57
2019-02-24T18:45:10.630Z,5.67
2019-02-24T18:47:38.894Z,5.13
2019-02-24T18:50:11.433Z,5.53
2019-02-24T18:52:39.703Z,6.20
2019-02-24T18:55:08.985Z,5.47
2019-02-24T18:57:37.557Z,5.80
2019-02-24T19:00:10.277Z,6.37
2019-02-24T19:02:38.541Z,6.50
2019-02-24T19:05:08.428Z,6.57
2019-02-24T19:07:36.744Z,6.30
2019-02-24T19:10:09.414Z,5.80
2019-02-24T19:12:37.661Z,6.17
2019-02-24T19:15:07.746Z,6.33
2019-02-24T19:17:36.017Z,6.20
2019-02-24T19:20:06.003Z,6.17
2019-02-24T19:22:34.249Z,6.23
2019-02-24T19:25:02.861Z,6.97
2019-02-24T19:27:31.078Z,6.50
2019-02-24T19:29:59.325Z,7.07
2019-02-24T19:32:27.541Z,7.27
2019-02-24T19:34:55.813Z,6.13
2019-02-24T19:37:24.054Z,6.17
2019-02-24T19:39:52.317Z,6.10
2019-02-24T19:42:20.529Z,6.30
2019-02-24T19:44:48.801Z,6.13
2019-02-24T19:47:17.019Z,5.70
2019-02-24T19:49:45.261Z,6.80
2019-02-24T19:52:13.814Z,6.57
2019-02-24T19:54:42.463Z,5.73
2019-02-24T19:57:10.681Z,6.10
2019-02-24T19:59:39.001Z,6.13
2019-02-24T20:02:07.217Z,6.00
2019-02-24T20:04:35.486Z,6.03
2019-02-24T20:07:03.762Z,5.73
2019-02-24T20:09:32.033Z,6.03
2019-02-24T20:12:00.250Z,6.03
2019-02-24T20:14:28.561Z,6.10
2019-02-24T20:16:56.783Z,7.00
2019-02-24T20:19:25.029Z,6.50
2019-02-24T20:21:53.270Z,6.13
2019-02-24T20:24:21.541Z,7.67
2019-02-24T20:26:49.753Z,7.20
2019-02-24T20:29:18.001Z,7.50
2019-02-24T20:31:46.226Z,7.10
2019-02-24T20:34:14.441Z,7.57
2019-02-24T20:36:42.686Z,6.40
2019-02-24T20:39:10.915Z,7.50
2019-02-24T20:41:39.161Z,7.03
2019-02-24T20:44:07.406Z,7.83
2019-02-24T20:46:35.661Z,7.87
2019-02-24T20:49:03.890Z,6.77
2019-02-24T20:51:32.125Z,7.13
2019-02-24T20:54:00.345Z,7.67
2019-02-24T20:56:28.621Z,8.70
2019-02-24T20:58:56.861Z,7.83
2019-02-24T21:01:25.109Z,7.20
2019-02-24T21:03:53.337Z,7.27
2019-02-24T21:06:21.581Z,7.67
2019-02-24T21:08:49.814Z,7.57
2019-02-24T21:11:18.065Z,7.00
2019-02-24T21:13:46.284Z,6.63
2019-02-24T21:16:14.557Z,6.17
2019-02-24T21:18:42.780Z,6.20
2019-02-24T21:21:11.021Z,6.47
2019-02-24T21:23:39.257Z,6.27
2019-02-24T21:26:07.777Z,7.00
2019-02-24T21:28:36.018Z,6.60
2019-02-24T21:31:04.333Z,6.77
2019-02-24T21:33:32.549Z,6.87
2019-02-24T21:36:00.799Z,7.47
2019-02-24T21:38:29.052Z,7.87
2019-02-24T21:40:57.293Z,6.97
2019-02-24T21:43:25.516Z,6.37
2019-02-24T21:45:53.771Z,6.90
2019-02-24T21:48:21.989Z,7.33
2019-02-24T21:50:50.265Z,7.73
2019-02-24T21:53:18.481Z,7.20
2019-02-24T21:55:46.706Z,7.83
2019-02-24T21:58:14.989Z,7.77
2019-02-24T22:00:43.361Z,8.30
2019-02-24T22:03:11.634Z,7.83
2019-02-24T22:05:39.853Z,7.40
2019-02-24T22:08:08.105Z,6.97
2019-02-24T22:10:36.417Z,7.23
2019-02-24T22:13:04.670Z,7.00
2019-02-24T22:15:32.897Z,7.30
2019-02-24T22:18:01.151Z,7.37
2019-02-24T22:20:29.374Z,7.30
2019-02-24T22:22:57.645Z,7.57
2019-02-24T22:25:25.873Z,8.30
2019-02-24T22:27:54.117Z,8.63
2019-02-24T22:30:22.918Z,7.97
2019-02-24T22:32:51.240Z,7.13
2019-02-24T22:35:19.467Z,7.77
2019-02-24T22:37:47.784Z,7.33
2019-02-24T22:40:16.940Z,6.30
2019-02-24T22:42:45.722Z,7.70
2019-02-24T22:45:16.756Z,6.90
2019-02-24T22:47:45.094Z,7.57
2019-02-24T22:50:13.680Z,6.87
2019-02-24T22:52:41.932Z,7.03
2019-02-24T22:55:11.333Z,7.10
2019-02-24T22:57:39.609Z,7.27
2019-02-24T23:00:12.317Z,8.03
2019-02-24T23:02:40.638Z,6.70
2019-02-24T23:05:08.881Z,7.10
2019-02-24T23:07:37.158Z,7.57
2019-02-24T23:10:06.792Z,7.30
2019-02-24T23:12:35.136Z,6.80
2019-02-24T23:15:04.526Z,6.93
2019-02-24T23:17:32.777Z,6.43
2019-02-24T23:20:01.013Z,6.50
2019-02-24T23:22:29.225Z,6.83
2019-02-24T23:24:57.482Z,6.77
2019-02-24T23:27:25.729Z,7.40
2019-02-24T23:29:53.978Z,6.67
2019-02-24T23:32:22.210Z,6.23
2019-02-24T23:34:50.463Z,6.67
2019-02-24T23:37:19.694Z,7.00
2019-02-24T23:39:47.969Z,6.67
2019-02-24T23:42:16.186Z,6.60
2019-02-24T23:44:44.449Z,6.87
2019-02-24T23:47:12.844Z,7.93
2019-02-24T23:49:41.117Z,7.83
2019-02-24T23:52:09.341Z,7.73
2019-02-24T23:54:37.596Z,7.20
2019-02-24T23:57:05.841Z,7.77
2019-02-24T23:59:34.093Z,7.80
